sensor_id;sensor_type;location;lat;lon;timestamp;pressure;altitude;pressure_sealevel;temperature;humidity
15884;BME280;8040;50.254;10.960;2023-04-24T00:02:06;97086.97;;;13.95;77.07
15884;BME280;8040;50.254;10.960;2023-04-24T00:04:32;97083.25;;;13.88;77.30
15884;BME280;8040;50.254;10.960;2023-04-24T00:06:57;97096.78;;;13.84;77.15
15884;BME280;8040;50.254;10.960;2023-04-24T00:09:25;97094.41;;;13.83;77.24
15884;BME280;8040;50.254;10.960;2023-04-24T00:11:52;97081.91;;;13.82;77.61
15884;BME280;8040;50.254;10.960;2023-04-24T00:14:17;97086.66;;;13.85;77.75
15884;BME280;8040;50.254;10.960;2023-04-24T00:16:43;97081.09;;;13.81;77.10
15884;BME280;8040;50.254;10.960;2023-04-24T00:19:08;97095.53;;;13.82;77.21
15884;BME280;8040;50.254;10.960;2023-04-24T00:21:34;97076.72;;;13.77;77.13
15884;BME280;8040;50.254;10.960;2023-04-24T00:23:59;97077.16;;;13.79;76.97
15884;BME280;8040;50.254;10.960;2023-04-24T00:26:25;97067.81;;;13.80;76.96
15884;BME280;8040;50.254;10.960;2023-04-24T00:28:50;97075.22;;;13.79;76.90
15884;BME280;8040;50.254;10.960;2023-04-24T00:31:15;97078.47;;;13.85;77.25
15884;BME280;8040;50.254;10.960;2023-04-24T00:33:41;97066.34;;;13.82;77.22
15884;BME280;8040;50.254;10.960;2023-04-24T00:36:06;97069.88;;;13.83;76.95
15884;BME280;8040;50.254;10.960;2023-04-24T00:38:32;97072.34;;;13.88;76.38
15884;BME280;8040;50.254;10.960;2023-04-24T00:40:58;97058.53;;;13.81;76.58
15884;BME280;8040;50.254;10.960;2023-04-24T00:43:24;97060.88;;;13.82;75.97
15884;BME280;8040;50.254;10.960;2023-04-24T00:45:50;97062.84;;;13.82;75.85
15884;BME280;8040;50.254;10.960;2023-04-24T00:48:16;97065.66;;;13.85;75.54
15884;BME280;8040;50.254;10.960;2023-04-24T00:50:41;97069.53;;;13.84;76.00
15884;BME280;8040;50.254;10.960;2023-04-24T00:53:07;97067.63;;;13.73;75.53
15884;BME280;8040;50.254;10.960;2023-04-24T00:55:32;97059.59;;;13.64;75.34
15884;BME280;8040;50.254;10.960;2023-04-24T00:57:58;97074.94;;;13.69;75.36
15884;BME280;8040;50.254;10.960;2023-04-24T01:00:23;97079.06;;;13.63;75.72
15884;BME280;8040;50.254;10.960;2023-04-24T01:02:51;97056.44;;;13.62;75.67
15884;BME280;8040;50.254;10.960;2023-04-24T01:05:17;97072.22;;;13.69;75.98
15884;BME280;8040;50.254;10.960;2023-04-24T01:07:44;97057.25;;;13.63;75.80
15884;BME280;8040;50.254;10.960;2023-04-24T01:10:11;97057.09;;;13.71;75.87
15884;BME280;8040;50.254;10.960;2023-04-24T01:12:38;97056.72;;;13.73;75.72
15884;BME280;8040;50.254;10.960;2023-04-24T01:15:04;97050.16;;;13.74;75.78
15884;BME280;8040;50.254;10.960;2023-04-24T01:17:30;97065.56;;;13.82;75.46
15884;BME280;8040;50.254;10.960;2023-04-24T01:19:56;97060.88;;;13.82;75.33
15884;BME280;8040;50.254;10.960;2023-04-24T01:22:22;97053.66;;;13.74;74.44
15884;BME280;8040;50.254;10.960;2023-04-24T01:24:48;97055.88;;;13.69;74.41
15884;BME280;8040;50.254;10.960;2023-04-24T01:27:14;97055.06;;;13.68;74.70
15884;BME280;8040;50.254;10.960;2023-04-24T01:29:39;97057.00;;;13.68;74.84
15884;BME280;8040;50.254;10.960;2023-04-24T01:32:05;97058.03;;;13.63;74.47
15884;BME280;8040;50.254;10.960;2023-04-24T01:34:31;97054.28;;;13.68;74.34
15884;BME280;8040;50.254;10.960;2023-04-24T01:36:57;97058.94;;;13.67;74.08
15884;BME280;8040;50.254;10.960;2023-04-24T01:39:22;97054.97;;;13.65;73.93
15884;BME280;8040;50.254;10.960;2023-04-24T01:41:51;97038.97;;;13.63;74.30
15884;BME280;8040;50.254;10.960;2023-04-24T01:44:17;97054.53;;;13.63;73.40
15884;BME280;8040;50.254;10.960;2023-04-24T01:46:43;97053.38;;;13.64;73.33
15884;BME280;8040;50.254;10.960;2023-04-24T01:49:08;97047.56;;;13.50;73.17
15884;BME280;8040;50.254;10.960;2023-04-24T01:51:34;97040.97;;;13.51;73.39
15884;BME280;8040;50.254;10.960;2023-04-24T01:54:00;97048.00;;;13.52;72.59
15884;BME280;8040;50.254;10.960;2023-04-24T01:56:29;97063.28;;;13.56;72.78
15884;BME280;8040;50.254;10.960;2023-04-24T01:58:55;97044.31;;;13.60;72.50
15884;BME280;8040;50.254;10.960;2023-04-24T02:01:21;97041.25;;;13.61;72.41
15884;BME280;8040;50.254;10.960;2023-04-24T02:03:48;97054.63;;;13.66;72.12
15884;BME280;8040;50.254;10.960;2023-04-24T02:06:13;97052.78;;;13.70;71.36
15884;BME280;8040;50.254;10.960;2023-04-24T02:08:39;97048.03;;;13.67;71.54
15884;BME280;8040;50.254;10.960;2023-04-24T02:11:04;97033.88;;;13.62;71.64
15884;BME280;8040;50.254;10.960;2023-04-24T02:13:31;97043.72;;;13.66;71.67
15884;BME280;8040;50.254;10.960;2023-04-24T02:15:58;97045.66;;;13.66;71.08
15884;BME280;8040;50.254;10.960;2023-04-24T02:18:23;97040.66;;;13.68;70.79
15884;BME280;8040;50.254;10.960;2023-04-24T02:20:49;97048.56;;;13.73;71.41
15884;BME280;8040;50.254;10.960;2023-04-24T02:23:14;97056.53;;;13.66;71.24
15884;BME280;8040;50.254;10.960;2023-04-24T02:25:40;97054.88;;;13.61;70.55
15884;BME280;8040;50.254;10.960;2023-04-24T02:28:05;97045.78;;;13.57;70.47
15884;BME280;8040;50.254;10.960;2023-04-24T02:30:30;97045.03;;;13.57;70.83
15884;BME280;8040;50.254;10.960;2023-04-24T02:32:56;97045.13;;;13.60;70.60
15884;BME280;8040;50.254;10.960;2023-04-24T02:35:21;97041.16;;;13.58;70.61
15884;BME280;8040;50.254;10.960;2023-04-24T02:37:49;97039.81;;;13.52;70.63
15884;BME280;8040;50.254;10.960;2023-04-24T02:40:14;97022.13;;;13.46;70.00
15884;BME280;8040;50.254;10.960;2023-04-24T02:42:42;97020.38;;;13.38;70.00
15884;BME280;8040;50.254;10.960;2023-04-24T02:45:08;97020.69;;;13.36;70.21
15884;BME280;8040;50.254;10.960;2023-04-24T02:47:33;97022.38;;;13.41;70.11
15884;BME280;8040;50.254;10.960;2023-04-24T02:49:58;97027.59;;;13.46;70.21
15884;BME280;8040;50.254;10.960;2023-04-24T02:52:24;97036.44;;;13.43;69.65
15884;BME280;8040;50.254;10.960;2023-04-24T02:54:51;97023.88;;;13.38;69.40
15884;BME280;8040;50.254;10.960;2023-04-24T02:57:19;97025.53;;;13.43;69.95
15884;BME280;8040;50.254;10.960;2023-04-24T02:59:44;97010.25;;;13.38;69.25
15884;BME280;8040;50.254;10.960;2023-04-24T03:02:10;97010.81;;;13.44;69.75
15884;BME280;8040;50.254;10.960;2023-04-24T03:04:35;96992.66;;;13.36;69.65
15884;BME280;8040;50.254;10.960;2023-04-24T03:07:01;97001.63;;;13.36;69.02
15884;BME280;8040;50.254;10.960;2023-04-24T03:09:27;96996.97;;;13.37;69.38
15884;BME280;8040;50.254;10.960;2023-04-24T03:11:52;97001.91;;;13.47;69.27
15884;BME280;8040;50.254;10.960;2023-04-24T03:14:17;97015.31;;;13.52;70.05
15884;BME280;8040;50.254;10.960;2023-04-24T03:16:43;97003.97;;;13.50;69.30
15884;BME280;8040;50.254;10.960;2023-04-24T03:19:08;96994.91;;;13.46;69.65
15884;BME280;8040;50.254;10.960;2023-04-24T03:21:33;97005.81;;;13.61;68.77
15884;BME280;8040;50.254;10.960;2023-04-24T03:24:00;97009.34;;;13.62;68.97
15884;BME280;8040;50.254;10.960;2023-04-24T03:26:26;97017.53;;;13.62;69.00
15884;BME280;8040;50.254;10.960;2023-04-24T03:28:51;96999.56;;;13.61;68.85
15884;BME280;8040;50.254;10.960;2023-04-24T03:31:16;97004.78;;;13.66;68.73
15884;BME280;8040;50.254;10.960;2023-04-24T03:33:42;97005.03;;;13.61;68.17
15884;BME280;8040;50.254;10.960;2023-04-24T03:36:10;97012.75;;;13.59;67.80
15884;BME280;8040;50.254;10.960;2023-04-24T03:38:35;97008.56;;;13.61;68.70
15884;BME280;8040;50.254;10.960;2023-04-24T03:41:00;97013.41;;;13.68;68.75
15884;BME280;8040;50.254;10.960;2023-04-24T03:43:25;97002.06;;;13.66;68.93
15884;BME280;8040;50.254;10.960;2023-04-24T03:45:52;97015.00;;;13.69;69.06
15884;BME280;8040;50.254;10.960;2023-04-24T03:48:17;97011.47;;;13.68;69.13
15884;BME280;8040;50.254;10.960;2023-04-24T03:50:43;97009.97;;;13.71;68.84
15884;BME280;8040;50.254;10.960;2023-04-24T03:53:09;97013.03;;;13.69;68.79
15884;BME280;8040;50.254;10.960;2023-04-24T03:55:35;97007.31;;;13.59;69.31
15884;BME280;8040;50.254;10.960;2023-04-24T03:58:00;97013.75;;;13.66;69.12
15884;BME280;8040;50.254;10.960;2023-04-24T04:00:26;97012.50;;;13.64;69.24
15884;BME280;8040;50.254;10.960;2023-04-24T04:02:51;97005.47;;;13.63;68.77
15884;BME280;8040;50.254;10.960;2023-04-24T04:05:16;97015.34;;;13.67;68.49
15884;BME280;8040;50.254;10.960;2023-04-24T04:07:42;97010.38;;;13.57;68.15
15884;BME280;8040;50.254;10.960;2023-04-24T04:10:07;97008.97;;;13.63;68.49
15884;BME280;8040;50.254;10.960;2023-04-24T04:12:33;97009.69;;;13.60;68.00
15884;BME280;8040;50.254;10.960;2023-04-24T04:14:58;97018.66;;;13.61;68.60
15884;BME280;8040;50.254;10.960;2023-04-24T04:17:25;97013.91;;;13.58;68.33
15884;BME280;8040;50.254;10.960;2023-04-24T04:19:52;97020.78;;;13.67;68.73
15884;BME280;8040;50.254;10.960;2023-04-24T04:22:17;97007.84;;;13.64;68.70
15884;BME280;8040;50.254;10.960;2023-04-24T04:24:43;97014.53;;;13.67;68.04
15884;BME280;8040;50.254;10.960;2023-04-24T04:27:08;97003.44;;;13.60;67.73
15884;BME280;8040;50.254;10.960;2023-04-24T04:29:33;97016.13;;;13.68;68.24
15884;BME280;8040;50.254;10.960;2023-04-24T04:31:59;97026.75;;;13.73;68.13
15884;BME280;8040;50.254;10.960;2023-04-24T04:34:25;97026.94;;;13.80;68.40
15884;BME280;8040;50.254;10.960;2023-04-24T04:36:50;97020.47;;;13.84;67.75
15884;BME280;8040;50.254;10.960;2023-04-24T04:39:16;97012.19;;;13.65;67.39
15884;BME280;8040;50.254;10.960;2023-04-24T04:41:41;97008.72;;;13.68;67.69
15884;BME280;8040;50.254;10.960;2023-04-24T04:44:07;97017.00;;;13.72;67.22
15884;BME280;8040;50.254;10.960;2023-04-24T04:46:34;97013.03;;;13.69;67.59
15884;BME280;8040;50.254;10.960;2023-04-24T04:49:01;97009.47;;;13.81;67.63
15884;BME280;8040;50.254;10.960;2023-04-24T04:51:27;97011.72;;;13.79;66.73
15884;BME280;8040;50.254;10.960;2023-04-24T04:53:53;97010.25;;;13.81;66.90
15884;BME280;8040;50.254;10.960;2023-04-24T04:56:18;97012.88;;;13.78;67.21
15884;BME280;8040;50.254;10.960;2023-04-24T04:58:43;97007.28;;;13.86;66.95
15884;BME280;8040;50.254;10.960;2023-04-24T05:01:09;97010.53;;;13.92;66.84
15884;BME280;8040;50.254;10.960;2023-04-24T05:03:34;97021.63;;;13.99;66.98
15884;BME280;8040;50.254;10.960;2023-04-24T05:06:02;97024.78;;;14.01;66.55
15884;BME280;8040;50.254;10.960;2023-04-24T05:08:27;97015.56;;;14.05;65.60
15884;BME280;8040;50.254;10.960;2023-04-24T05:10:54;97024.78;;;14.16;66.01
15884;BME280;8040;50.254;10.960;2023-04-24T05:13:20;97029.22;;;14.21;65.92
15884;BME280;8040;50.254;10.960;2023-04-24T05:15:45;97016.28;;;14.18;65.51
15884;BME280;8040;50.254;10.960;2023-04-24T05:18:10;97029.22;;;14.21;65.29
15884;BME280;8040;50.254;10.960;2023-04-24T05:20:36;97028.31;;;14.17;65.81
15884;BME280;8040;50.254;10.960;2023-04-24T05:23:02;97027.69;;;14.08;65.98
15884;BME280;8040;50.254;10.960;2023-04-24T05:25:28;97045.38;;;14.14;66.01
15884;BME280;8040;50.254;10.960;2023-04-24T05:27:53;97047.41;;;14.17;65.94
15884;BME280;8040;50.254;10.960;2023-04-24T05:30:22;97043.00;;;14.12;66.47
15884;BME280;8040;50.254;10.960;2023-04-24T05:32:47;97040.19;;;14.09;66.49
15884;BME280;8040;50.254;10.960;2023-04-24T05:35:12;97044.13;;;14.11;66.77
15884;BME280;8040;50.254;10.960;2023-04-24T05:37:38;97056.19;;;14.10;66.26
15884;BME280;8040;50.254;10.960;2023-04-24T05:40:04;97045.19;;;14.07;66.24
15884;BME280;8040;50.254;10.960;2023-04-24T05:42:30;97046.00;;;14.07;66.36
15884;BME280;8040;50.254;10.960;2023-04-24T05:44:56;97052.22;;;14.08;66.43
15884;BME280;8040;50.254;10.960;2023-04-24T05:47:21;97050.13;;;14.01;66.89
15884;BME280;8040;50.254;10.960;2023-04-24T05:49:47;97039.00;;;13.94;66.27
15884;BME280;8040;50.254;10.960;2023-04-24T05:52:13;97045.69;;;13.97;66.47
15884;BME280;8040;50.254;10.960;2023-04-24T05:54:39;97045.03;;;14.00;66.51
15884;BME280;8040;50.254;10.960;2023-04-24T05:57:04;97047.41;;;14.01;66.42
15884;BME280;8040;50.254;10.960;2023-04-24T05:59:36;97063.94;;;14.08;66.46
15884;BME280;8040;50.254;10.960;2023-04-24T06:02:03;97055.66;;;14.05;66.13
15884;BME280;8040;50.254;10.960;2023-04-24T06:04:28;97070.34;;;14.16;66.27
15884;BME280;8040;50.254;10.960;2023-04-24T06:06:54;97061.47;;;14.03;65.40
15884;BME280;8040;50.254;10.960;2023-04-24T06:09:24;97062.16;;;14.00;65.83
15884;BME280;8040;50.254;10.960;2023-04-24T06:11:50;97062.53;;;13.99;65.65
15884;BME280;8040;50.254;10.960;2023-04-24T06:14:19;97084.19;;;14.07;66.42
15884;BME280;8040;50.254;10.960;2023-04-24T06:16:45;97063.78;;;14.17;66.28
15884;BME280;8040;50.254;10.960;2023-04-24T06:19:10;97066.25;;;14.22;66.05
15884;BME280;8040;50.254;10.960;2023-04-24T06:21:36;97076.72;;;14.20;66.14
15884;BME280;8040;50.254;10.960;2023-04-24T06:24:01;97068.69;;;14.11;65.62
15884;BME280;8040;50.254;10.960;2023-04-24T06:26:27;97080.59;;;14.19;64.77
15884;BME280;8040;50.254;10.960;2023-04-24T06:28:53;97083.56;;;14.14;65.11
15884;BME280;8040;50.254;10.960;2023-04-24T06:31:21;97084.34;;;14.14;65.02
15884;BME280;8040;50.254;10.960;2023-04-24T06:33:48;97073.06;;;14.16;65.33
15884;BME280;8040;50.254;10.960;2023-04-24T06:36:14;97073.03;;;14.28;65.58
15884;BME280;8040;50.254;10.960;2023-04-24T06:38:40;97075.59;;;14.36;65.67
15884;BME280;8040;50.254;10.960;2023-04-24T06:41:05;97075.97;;;14.35;65.26
15884;BME280;8040;50.254;10.960;2023-04-24T06:43:31;97048.06;;;14.26;64.42
15884;BME280;8040;50.254;10.960;2023-04-24T06:45:59;97085.44;;;14.41;64.11
15884;BME280;8040;50.254;10.960;2023-04-24T06:48:24;97084.31;;;14.42;64.05
15884;BME280;8040;50.254;10.960;2023-04-24T06:50:51;97074.00;;;14.35;63.17
15884;BME280;8040;50.254;10.960;2023-04-24T06:53:16;97089.47;;;14.47;62.97
15884;BME280;8040;50.254;10.960;2023-04-24T06:55:42;97075.25;;;14.38;61.79
15884;BME280;8040;50.254;10.960;2023-04-24T06:58:08;97091.69;;;14.57;61.53
15884;BME280;8040;50.254;10.960;2023-04-24T07:00:34;97087.13;;;14.61;61.18
15884;BME280;8040;50.254;10.960;2023-04-24T07:03:06;97077.78;;;14.62;61.26
15884;BME280;8040;50.254;10.960;2023-04-24T07:05:31;97074.34;;;14.65;61.39
15884;BME280;8040;50.254;10.960;2023-04-24T07:07:58;97089.13;;;14.79;60.63
15884;BME280;8040;50.254;10.960;2023-04-24T07:10:24;97087.13;;;14.76;59.29
15884;BME280;8040;50.254;10.960;2023-04-24T07:12:52;97094.75;;;14.86;58.82
15884;BME280;8040;50.254;10.960;2023-04-24T07:15:17;97091.41;;;14.77;57.20
15884;BME280;8040;50.254;10.960;2023-04-24T07:17:43;97112.44;;;14.92;58.17
15884;BME280;8040;50.254;10.960;2023-04-24T07:20:10;97106.03;;;14.85;57.32
15884;BME280;8040;50.254;10.960;2023-04-24T07:22:37;97097.56;;;14.74;56.89
15884;BME280;8040;50.254;10.960;2023-04-24T07:25:04;97112.19;;;14.66;57.06
15884;BME280;8040;50.254;10.960;2023-04-24T07:27:30;97107.00;;;14.46;57.15
15884;BME280;8040;50.254;10.960;2023-04-24T07:29:55;97122.16;;;14.59;57.55
15884;BME280;8040;50.254;10.960;2023-04-24T07:32:20;97125.75;;;14.63;57.70
15884;BME280;8040;50.254;10.960;2023-04-24T07:34:46;97124.97;;;14.78;57.71
15884;BME280;8040;50.254;10.960;2023-04-24T07:37:11;97116.00;;;14.62;56.47
15884;BME280;8040;50.254;10.960;2023-04-24T07:39:42;97100.84;;;14.64;56.92
15884;BME280;8040;50.254;10.960;2023-04-24T07:42:17;97107.00;;;14.77;57.08
15884;BME280;8040;50.254;10.960;2023-04-24T07:44:46;97102.41;;;14.81;56.57
15884;BME280;8040;50.254;10.960;2023-04-24T07:47:13;97113.28;;;15.12;56.72
15884;BME280;8040;50.254;10.960;2023-04-24T07:49:42;97130.97;;;15.33;55.73
15884;BME280;8040;50.254;10.960;2023-04-24T07:52:07;97122.59;;;15.42;55.45
15884;BME280;8040;50.254;10.960;2023-04-24T07:54:33;97128.28;;;15.52;54.73
15884;BME280;8040;50.254;10.960;2023-04-24T07:56:58;97124.81;;;15.36;53.01
15884;BME280;8040;50.254;10.960;2023-04-24T07:59:24;97121.44;;;15.27;53.47
15884;BME280;8040;50.254;10.960;2023-04-24T08:01:49;97120.84;;;15.34;53.97
15884;BME280;8040;50.254;10.960;2023-04-24T08:04:15;97124.00;;;15.36;53.24
15884;BME280;8040;50.254;10.960;2023-04-24T08:06:40;97127.91;;;15.35;53.40
15884;BME280;8040;50.254;10.960;2023-04-24T08:09:06;97153.66;;;15.34;52.05
15884;BME280;8040;50.254;10.960;2023-04-24T08:11:31;97152.84;;;15.33;51.86
15884;BME280;8040;50.254;10.960;2023-04-24T08:13:57;97139.50;;;15.32;51.54
15884;BME280;8040;50.254;10.960;2023-04-24T08:16:22;97152.88;;;15.52;51.13
15884;BME280;8040;50.254;10.960;2023-04-24T08:18:49;97163.03;;;15.52;49.53
15884;BME280;8040;50.254;10.960;2023-04-24T08:21:15;97164.47;;;15.30;47.16
15884;BME280;8040;50.254;10.960;2023-04-24T08:23:42;97122.78;;;15.18;48.17
15884;BME280;8040;50.254;10.960;2023-04-24T08:26:08;97143.56;;;15.38;48.29
15884;BME280;8040;50.254;10.960;2023-04-24T08:28:34;97134.94;;;15.36;47.95
15884;BME280;8040;50.254;10.960;2023-04-24T08:31:02;97150.94;;;15.53;47.38
15884;BME280;8040;50.254;10.960;2023-04-24T08:33:28;97168.78;;;15.47;47.45
15884;BME280;8040;50.254;10.960;2023-04-24T08:36:01;97142.22;;;15.47;47.76
15884;BME280;8040;50.254;10.960;2023-04-24T08:38:26;97156.84;;;15.55;47.72
15884;BME280;8040;50.254;10.960;2023-04-24T08:40:52;97157.28;;;15.57;46.08
15884;BME280;8040;50.254;10.960;2023-04-24T08:43:18;97154.41;;;15.34;46.12
15884;BME280;8040;50.254;10.960;2023-04-24T08:45:46;97175.50;;;15.34;45.33
15884;BME280;8040;50.254;10.960;2023-04-24T08:48:13;97172.03;;;15.37;47.03
15884;BME280;8040;50.254;10.960;2023-04-24T08:50:40;97167.63;;;15.48;46.72
15884;BME280;8040;50.254;10.960;2023-04-24T08:53:08;97169.13;;;15.45;46.32
15884;BME280;8040;50.254;10.960;2023-04-24T08:55:34;97158.88;;;15.58;46.48
15884;BME280;8040;50.254;10.960;2023-04-24T08:58:01;97170.72;;;15.65;45.99
15884;BME280;8040;50.254;10.960;2023-04-24T09:00:28;97175.84;;;15.67;45.91
15884;BME280;8040;50.254;10.960;2023-04-24T09:02:55;97177.19;;;15.57;46.24
15884;BME280;8040;50.254;10.960;2023-04-24T09:05:22;97180.88;;;15.65;44.74
15884;BME280;8040;50.254;10.960;2023-04-24T09:07:56;97192.13;;;15.79;43.98
15884;BME280;8040;50.254;10.960;2023-04-24T09:10:23;97189.75;;;15.77;43.29
15884;BME280;8040;50.254;10.960;2023-04-24T09:12:53;97182.91;;;15.87;43.67
15884;BME280;8040;50.254;10.960;2023-04-24T09:15:20;97197.47;;;15.91;43.15
15884;BME280;8040;50.254;10.960;2023-04-24T09:17:46;97180.03;;;15.80;43.28
15884;BME280;8040;50.254;10.960;2023-04-24T09:20:12;97177.81;;;15.85;43.63
15884;BME280;8040;50.254;10.960;2023-04-24T09:22:37;97175.72;;;15.79;43.53
15884;BME280;8040;50.254;10.960;2023-04-24T09:25:05;97164.75;;;15.60;43.86
15884;BME280;8040;50.254;10.960;2023-04-24T09:27:32;97164.34;;;15.58;43.35
15884;BME280;8040;50.254;10.960;2023-04-24T09:29:58;97175.72;;;15.79;43.09
15884;BME280;8040;50.254;10.960;2023-04-24T09:32:26;97163.13;;;15.93;43.45
15884;BME280;8040;50.254;10.960;2023-04-24T09:37:43;97160.09;;;16.17;43.43
15884;BME280;8040;50.254;10.960;2023-04-24T09:42:36;97178.28;;;16.28;43.56
15884;BME280;8040;50.254;10.960;2023-04-24T09:45:02;97170.88;;;16.48;42.93
15884;BME280;8040;50.254;10.960;2023-04-24T09:47:35;97177.53;;;16.69;42.50
15884;BME280;8040;50.254;10.960;2023-04-24T09:50:09;97173.63;;;16.70;41.81
15884;BME280;8040;50.254;10.960;2023-04-24T09:52:34;97181.03;;;16.47;41.56
15884;BME280;8040;50.254;10.960;2023-04-24T09:55:00;97188.25;;;16.36;42.64
15884;BME280;8040;50.254;10.960;2023-04-24T09:57:25;97193.59;;;16.29;42.01
15884;BME280;8040;50.254;10.960;2023-04-24T09:59:53;97192.94;;;16.17;42.31
15884;BME280;8040;50.254;10.960;2023-04-24T10:02:19;97190.97;;;15.98;42.77
15884;BME280;8040;50.254;10.960;2023-04-24T10:04:54;97200.47;;;16.04;43.47
15884;BME280;8040;50.254;10.960;2023-04-24T10:07:20;97191.56;;;16.08;44.29
15884;BME280;8040;50.254;10.960;2023-04-24T10:09:46;97201.91;;;15.98;44.18
15884;BME280;8040;50.254;10.960;2023-04-24T10:12:12;97190.69;;;16.03;44.05
15884;BME280;8040;50.254;10.960;2023-04-24T10:14:40;97193.72;;;16.17;44.22
15884;BME280;8040;50.254;10.960;2023-04-24T10:17:06;97194.28;;;16.26;43.15
15884;BME280;8040;50.254;10.960;2023-04-24T10:19:33;97199.28;;;16.21;42.83
15884;BME280;8040;50.254;10.960;2023-04-24T10:22:02;97193.88;;;16.24;43.05
15884;BME280;8040;50.254;10.960;2023-04-24T10:24:29;97202.94;;;16.47;42.90
15884;BME280;8040;50.254;10.960;2023-04-24T10:26:55;97193.44;;;16.41;40.84
15884;BME280;8040;50.254;10.960;2023-04-24T10:29:22;97198.25;;;16.48;41.15
15884;BME280;8040;50.254;10.960;2023-04-24T10:31:47;97201.63;;;16.60;41.37
15884;BME280;8040;50.254;10.960;2023-04-24T10:34:14;97218.97;;;16.68;41.20
15884;BME280;8040;50.254;10.960;2023-04-24T10:36:43;97223.06;;;16.77;41.05
15884;BME280;8040;50.254;10.960;2023-04-24T10:39:12;97198.78;;;16.76;40.60
15884;BME280;8040;50.254;10.960;2023-04-24T10:41:39;97207.31;;;16.71;40.65
15884;BME280;8040;50.254;10.960;2023-04-24T10:44:06;97216.22;;;16.68;40.51
15884;BME280;8040;50.254;10.960;2023-04-24T10:46:32;97211.97;;;16.70;40.98
15884;BME280;8040;50.254;10.960;2023-04-24T10:48:57;97220.25;;;16.74;41.58
15884;BME280;8040;50.254;10.960;2023-04-24T10:51:24;97213.72;;;16.78;40.43
15884;BME280;8040;50.254;10.960;2023-04-24T10:53:51;97218.38;;;16.78;39.57
15884;BME280;8040;50.254;10.960;2023-04-24T10:56:17;97229.41;;;16.81;40.63
15884;BME280;8040;50.254;10.960;2023-04-24T10:58:50;97222.63;;;16.75;39.74
15884;BME280;8040;50.254;10.960;2023-04-24T11:01:31;97235.63;;;16.78;40.17
15884;BME280;8040;50.254;10.960;2023-04-24T11:03:59;97233.34;;;16.84;40.35
15884;BME280;8040;50.254;10.960;2023-04-24T11:06:32;97247.59;;;16.93;40.71
15884;BME280;8040;50.254;10.960;2023-04-24T11:09:08;97239.53;;;17.00;38.40
15884;BME280;8040;50.254;10.960;2023-04-24T11:11:37;97236.63;;;16.93;38.38
15884;BME280;8040;50.254;10.960;2023-04-24T11:14:08;97233.53;;;16.94;38.86
15884;BME280;8040;50.254;10.960;2023-04-24T11:21:54;97231.72;;;16.79;39.22
15884;BME280;8040;50.254;10.960;2023-04-24T11:27:38;97234.00;;;16.77;40.01
15884;BME280;8040;50.254;10.960;2023-04-24T11:30:05;97232.53;;;16.61;39.09
15884;BME280;8040;50.254;10.960;2023-04-24T11:37:41;97260.66;;;16.39;40.09
15884;BME280;8040;50.254;10.960;2023-04-24T11:40:09;97267.78;;;16.43;41.36
15884;BME280;8040;50.254;10.960;2023-04-24T11:42:36;97262.91;;;16.37;39.76
15884;BME280;8040;50.254;10.960;2023-04-24T11:47:43;97267.19;;;16.53;38.99
15884;BME280;8040;50.254;10.960;2023-04-24T11:50:12;97274.41;;;16.42;39.18
15884;BME280;8040;50.254;10.960;2023-04-24T11:52:43;97268.59;;;16.09;38.32
15884;BME280;8040;50.254;10.960;2023-04-24T11:55:29;97277.72;;;15.98;39.74
15884;BME280;8040;50.254;10.960;2023-04-24T11:57:57;97276.34;;;15.89;39.92
15884;BME280;8040;50.254;10.960;2023-04-24T12:00:25;97286.13;;;15.90;40.27
15884;BME280;8040;50.254;10.960;2023-04-24T12:02:51;97286.88;;;15.56;39.94
15884;BME280;8040;50.254;10.960;2023-04-24T12:05:20;97299.59;;;15.48;40.91
15884;BME280;8040;50.254;10.960;2023-04-24T12:07:46;97283.56;;;15.47;41.79
15884;BME280;8040;50.254;10.960;2023-04-24T12:10:11;97306.31;;;15.51;41.46
15884;BME280;8040;50.254;10.960;2023-04-24T12:12:36;97302.13;;;15.41;41.67
15884;BME280;8040;50.254;10.960;2023-04-24T12:15:07;97296.06;;;15.48;45.38
15884;BME280;8040;50.254;10.960;2023-04-24T12:17:34;97322.88;;;15.58;43.24
15884;BME280;8040;50.254;10.960;2023-04-24T12:20:06;97317.94;;;15.48;43.48
15884;BME280;8040;50.254;10.960;2023-04-24T12:22:52;97313.94;;;15.30;43.45
15884;BME280;8040;50.254;10.960;2023-04-24T12:25:26;97305.47;;;15.19;43.44
15884;BME280;8040;50.254;10.960;2023-04-24T12:28:12;97316.41;;;15.19;43.48
15884;BME280;8040;50.254;10.960;2023-04-24T12:30:43;97308.88;;;15.16;43.57
15884;BME280;8040;50.254;10.960;2023-04-24T12:33:10;97312.91;;;15.34;43.49
15884;BME280;8040;50.254;10.960;2023-04-24T12:35:35;97296.31;;;15.43;43.95
15884;BME280;8040;50.254;10.960;2023-04-24T12:38:08;97299.50;;;15.60;43.18
15884;BME280;8040;50.254;10.960;2023-04-24T12:40:33;97304.41;;;15.70;43.24
15884;BME280;8040;50.254;10.960;2023-04-24T12:42:59;97293.44;;;15.86;42.40
15884;BME280;8040;50.254;10.960;2023-04-24T12:45:24;97292.47;;;15.94;42.27
15884;BME280;8040;50.254;10.960;2023-04-24T12:47:50;97291.97;;;16.07;41.75
15884;BME280;8040;50.254;10.960;2023-04-24T12:50:16;97298.00;;;16.31;42.80
15884;BME280;8040;50.254;10.960;2023-04-24T12:52:43;97298.25;;;16.42;41.51
15884;BME280;8040;50.254;10.960;2023-04-24T12:55:09;97279.09;;;16.42;41.80
15884;BME280;8040;50.254;10.960;2023-04-24T12:57:36;97286.06;;;16.58;42.76
15884;BME280;8040;50.254;10.960;2023-04-24T13:00:03;97287.34;;;16.83;42.79
15884;BME280;8040;50.254;10.960;2023-04-24T13:02:30;97280.13;;;16.94;42.32
15884;BME280;8040;50.254;10.960;2023-04-24T13:04:58;97283.19;;;16.93;40.07
15884;BME280;8040;50.254;10.960;2023-04-24T13:07:24;97269.66;;;17.00;40.51
15884;BME280;8040;50.254;10.960;2023-04-24T13:09:51;97276.25;;;17.18;40.12
15884;BME280;8040;50.254;10.960;2023-04-24T13:12:17;97270.69;;;17.14;39.64
15884;BME280;8040;50.254;10.960;2023-04-24T13:14:43;97276.94;;;16.92;39.85
15884;BME280;8040;50.254;10.960;2023-04-24T13:17:08;97286.66;;;16.67;40.41
15884;BME280;8040;50.254;10.960;2023-04-24T13:19:40;97277.00;;;16.54;42.48